Shefford, Canada
Current Conditions -  °F | °C
As of 3:55 PM on Friday 31 Oct 2014 (Local Time) from KEFK Reporting Station
Clear Clear  
Wind Chill: 41°   Ceiling: Unl
Heat Index: 44°   Visibility: 10mi
Dew Point: 28°   Wind: 6mph
Humidity: 53%   Direction: 30°NNE
Pressure: 30"   Gusts: NA
Location:  45.42°N, 72.58°W
Report Text: KEFK 311955Z AUTO 03005KT 10SM CLR 07/M02 A3000 RMK AO2 T00691020
Loading
Personal Weather Stations






























Interactive Weather Map New forecast layout! Learn more

10-Day Weather Forecast

Advertisements
Track Severe Weather on mobile